Wetterstation Rottenburg Seebronn / 442m msl / http://mut-lambrecht.de
LETZTE AKTUALISIERUNG UM: 11:05 DATUM: Januar 24 2022, time of next update: 11:10
Aktuelles Wettermostly clear Aktuelle Temperatur 1.1°C (34.0°F), Apparent temp -0.4°C
Höchsttemperatur (seit Mitternacht)1.1°C um: 11:04 Tiefsttemperatur (seit Mitternacht)-3.3°C um: 07:35
Windgeschwindigkeit (10 Minuten )0.0 kmh (0.0 kts) Windrichtung (Dir) (10 Minuten )SSW (202°)
Windchill Temperatur 1.1°C Windspitzen (letzte Std)6.2 kmh (3.4 kts) um: 10:25
Windspitzen (seit Mitternacht)6.2 kmh (3.4 kts) um: 10:25 Höchstes Windmittel / Minute (seit Mitternacht)2.9 kmh (1.6 kts) um: 00:57
Regenmenge (letzte Std)0.0 mm Regenmenge (seit Mitternacht)0.0 mm (0.00 in.)---
Regenmenge diesen Monat 6.2 mm (0.24 in.) Regenmenge seit Jahresbeginn 6.2 mm (0.24 in.)
Höchste Regenmenge pro Minute (letzte Std)0.0 mm/min Höchste Regenmenge pro Stunde (letzte 6 Std)0.0 mm/stunde
Regenmenge Gestern 0.0 mm Taupunkt -1.3°C (Wet Bulb :0.3°C )
Luftfeuchtigkeit 84 %, Humidex -1.4°C Aktueller Luftdruck (auf Meereshöhe bezogen)1029.9 hPa
Luftdrucktendenz +0.3 hPa (letzte Std) Trend (letzte 1 Std)gleichbleibend
Luftdrucktendenz (letzte 12 Std)-0.4 hPa Luftdrucktendenz (letzte 6 Std)+1.5 hPa


Grafische Darstellung der letzten 24 Stunden.
Grafische Darstellung der letzten 48 Stunden.
Grafische Darstellung der letzten 72 Stunden.
Grafische Darstellung der letzten month.


Weather report/warning/Metars

Stuttgart-Echterdingen, Germany (EDDS) 48-41N 009-13E 391M
Jan 24, 2022 - 04:50 AM EST / 2022.01.24 0950 UTC
Wind: from the ENE (070 degrees) at 5 MPH (4 KT) (direction variable):0
Visibility: greater than 7 mile(s):0
Sky conditions: mostly clear
Temperature: 37 F (3 C)
Dew Point: 32 F (0 C)
Relative Humidity: 80%
Pressure (altimeter): 30.50 in. Hg (1033 hPa)
ob: EDDS 240950Z 07004KT 040V100 9999 FEW017 03/M00 Q1033 NOSIG
cycle: 10
Karlsruhe, Baden Wurttemberg, Germany (EDSB) 48-46-43N 008-04-47E
Jan 24, 2022 - 04:50 AM EST / 2022.01.24 0950 UTC
Wind: from the NE (050 degrees) at 3 MPH (3 KT) (direction variable):0
Visibility: greater than 7 mile(s):0
Temperature: 35 F (2 C)
Dew Point: 32 F (0 C)
Relative Humidity: 86%
Pressure (altimeter): 30.50 in. Hg (1033 hPa)
ob: EDSB 240950Z 05003KT 020V090 CAVOK 02/M00 Q1033
cycle: 10
Lahr, CAN-AFB, Germany (EDTL) 48-22-09N 007-49-40E
Jan 24, 2022 - 04:50 AM EST / 2022.01.24 0950 UTC
Wind: Variable at 2 MPH (2 KT):0
Visibility: 2 mile(s):0
Weather: mist
Temperature: 32 F (0 C)
Dew Point: 30 F (-1 C)
Relative Humidity: 92%
Pressure (altimeter): 30.50 in. Hg (1033 hPa)
ob: EDTL 240950Z VRB02KT 4000 BR NSC 00/M01 Q1033
cycle: 10
Laupheim, Germany (ETHL) 48-13N 009-55E 550M
Jan 24, 2022 - 04:20 AM EST / 2022.01.24 0920 UTC
Wind: from the ENE (060 degrees) at 3 MPH (3 KT):0
Visibility: greater than 7 mile(s):0
Sky conditions: mostly clear
Temperature: 32 F (0 C)
Dew Point: 28 F (-2 C)
Relative Humidity: 86%
Pressure (altimeter): 30.47 in. Hg (1032 hPa)
ob: ETHL 240920Z 06003KT 9999 FEW012 00/M02 Q1032 BLU+BLU+
cycle: 9


Klicken Sie hier, um zu den Durchschnitts-, Extrem-, Monats- oder Tageswerten zu gelangen


Die Wetterdaten werden alle 5 Minuten aktualisiert.
Die 3 stündige Echtzeitgrafik wird jede Minute aktualisiert.
Bei der 3 stündige Echtzeitgrafik sind derzeit die Skalenfarben von Winddurchschnitt u. Windböen vertauscht. (Softwarebug)

Drücken Sie gegebenenfalls auf "Aktualisieren" in Ihrem Browser, um die aktuellsten Daten zu erhalten.